Time;durP1;ratioP1;P1;durP2;ratioP2;P2;SDS_P1;SDS_P2;PMS_P1;PMS_P2;Temp;Humidity;BMP_temperature;BMP_pressure;BME280_temperature;BME280_humidity;BME280_pressure;Samples;Min_cycle;Max_cycle;Signal;HPM_P1;HPM_P2
2022/01/26 08:04:05;;;;;;;42.15;21.15;;;;;;;-4.85;79.84;100217.30;1722280;81;21526;-37
2022/01/26 08:06:57;;;;;;;41.85;23.12;;;;;;;-4.88;80.31;100222.20;1724614;80;21659;-44
2022/01/26 08:18:11;;;;;;;50.15;25.27;;;;;;;-4.47;80.55;100213.55;1724929;80;21028;-44
2022/01/26 08:21:45;;;;;;;42.50;22.60;;;;;;;-4.25;79.47;100214.41;1733050;80;21021;-46
2022/01/26 08:24:37;;;;;;;52.00;26.27;;;;;;;-4.12;78.96;100214.30;1741431;80;22271;-35
2022/01/26 08:31:19;;;;;;;48.30;26.52;;;;;;;-3.98;78.43;100220.22;1742032;81;21160;-43
2022/01/26 08:33:46;;;;;;;55.83;28.55;;;;;;;-3.84;78.27;100220.58;1743449;80;21068;-37
2022/01/26 08:36:15;;;;;;;49.90;25.50;;;;;;;-3.73;78.15;100210.95;1743058;81;21018;-37
2022/01/26 08:38:55;;;;;;;59.58;29.82;;;;;;;-3.61;77.65;100214.18;1749417;80;21036;-43
2022/01/26 08:41:46;;;;;;;53.42;29.30;;;;;;;-3.53;77.40;100209.11;1743939;81;21076;-44
2022/01/26 08:45:00;;;;;;;71.80;33.53;;;;;;;-3.49;77.17;100217.80;1743086;80;21480;-44
2022/01/26 08:47:29;;;;;;;62.20;31.37;;;;;;;-3.48;76.82;100219.56;1739640;81;21197;-43
2022/01/26 08:50:05;;;;;;;70.62;33.92;;;;;;;-3.46;77.00;100217.98;1692507;81;21040;-44
2022/01/26 08:52:32;;;;;;;65.00;31.45;;;;;;;-3.41;76.84;100222.08;1698718;83;21014;-44
2022/01/26 08:55:06;;;;;;;81.08;38.55;;;;;;;-3.38;76.71;100219.27;1700088;83;21130;-43
2022/01/26 08:58:10;;;;;;;72.70;34.53;;;;;;;-3.37;76.88;100214.63;1695173;82;21007;-37
2022/01/26 09:05:08;;;;;;;46.37;23.22;;;;;;;-3.28;76.55;100215.14;1692523;82;21087;-44
2022/01/26 09:08:21;;;;;;;59.90;30.17;;;;;;;-3.19;76.21;100212.17;1683253;83;21086;-37
2022/01/26 09:11:29;;;;;;;73.37;35.45;;;;;;;-3.10;76.10;100204.12;1669014;83;21084;-38
2022/01/26 09:15:29;;;;;;;58.75;28.77;;;;;;;-2.99;76.02;100200.45;1670364;83;21637;-37
2022/01/26 09:22:02;;;;;;;57.98;28.80;;;;;;;-2.73;75.63;100195.38;1686500;83;21053;-36
2022/01/26 09:26:00;;;;;;;60.95;31.50;;;;;;;-2.64;75.57;100189.45;1689756;83;21953;-48
2022/01/26 09:29:27;;;;;;;59.27;29.40;;;;;;;-2.61;75.85;100190.91;1690679;83;21023;-36
2022/01/26 09:35:53;;;;;;;50.45;28.75;;;;;;;-2.52;76.01;100196.87;1698793;82;21658;-43
2022/01/26 09:38:51;;;;;;;56.45;28.52;;;;;;;-2.49;76.00;100192.80;1703192;81;21582;-37
2022/01/26 09:42:19;;;;;;;55.60;29.63;;;;;;;-2.41;75.93;100191.48;1699124;81;21056;-37
2022/01/26 09:45:34;;;;;;;60.98;31.68;;;;;;;-2.34;75.89;100188.83;1703803;82;21045;-44
2022/01/26 10:18:56;;;;;;;60.98;31.60;;;;;;;-1.73;73.99;100182.83;1799838;78;27736;-36
2022/01/26 10:22:18;;;;;;;53.20;31.55;;;;;;;-1.76;74.09;100182.66;1780536;78;21588;-45
2022/01/26 10:26:01;;;;;;;56.18;29.42;;;;;;;-1.72;74.29;100175.60;1778061;78;21046;-35
2022/01/26 10:33:33;;;;;;;60.73;30.32;;;;;;;-1.75;74.14;100180.98;1777809;78;21053;-44
2022/01/26 10:36:12;;;;;;;63.30;31.25;;;;;;;-1.86;74.57;100174.05;1780923;78;21683;-38
2022/01/26 10:39:02;;;;;;;56.70;28.85;;;;;;;-1.93;75.00;100172.01;1782060;78;21045;-43
2022/01/26 10:41:43;;;;;;;65.55;34.15;;;;;;;-2.00;75.58;100175.97;1776845;78;21013;-37
2022/01/26 10:45:18;;;;;;;60.67;31.10;;;;;;;-2.05;75.93;100165.89;1758516;79;21091;-44
2022/01/26 10:47:54;;;;;;;61.70;30.92;;;;;;;-2.06;76.55;100169.67;1776661;78;21672;-44
2022/01/26 10:53:19;;;;;;;64.77;32.20;;;;;;;-2.16;77.03;100173.47;1775230;78;20974;-44
2022/01/26 10:55:45;;;;;;;64.07;33.60;;;;;;;-2.18;77.40;100173.80;1780133;78;21422;-37
2022/01/26 10:58:16;;;;;;;59.42;32.30;;;;;;;-2.08;77.62;100171.30;1781653;78;21025;-44
2022/01/26 11:00:43;;;;;;;58.30;31.50;;;;;;;-2.01;77.19;100164.37;1747850;80;21066;-43
2022/01/26 11:03:10;;;;;;;56.45;28.50;;;;;;;-1.99;77.18;100165.31;1743717;80;21001;-37
2022/01/26 11:05:39;;;;;;;58.70;31.23;;;;;;;-2.01;77.32;100165.25;1713852;81;21070;-42
2022/01/26 11:08:32;;;;;;;57.40;31.50;;;;;;;-2.02;77.47;100164.77;1722962;81;21038;-46
2022/01/26 11:12:04;;;;;;;69.17;34.58;;;;;;;-2.04;77.57;100171.48;1704424;81;21087;-44
2022/01/26 11:15:33;;;;;;;62.70;31.77;;;;;;;-2.06;78.00;100164.14;1726338;81;21517;-36
2022/01/26 11:27:15;;;;;;;73.00;36.53;;;;;;;-2.05;79.01;100167.58;1695977;82;21544;-44
2022/01/26 11:47:21;;;;;;;70.65;33.67;;;;;;;-2.22;81.93;100165.08;1768682;79;20993;-37
2022/01/26 11:50:04;;;;;;;67.40;35.23;;;;;;;-2.21;82.03;100169.39;1781357;79;21084;-45
2022/01/26 11:52:37;;;;;;;78.00;37.53;;;;;;;-2.19;82.11;100170.77;1776111;79;21058;-46
2022/01/26 11:55:25;;;;;;;82.62;38.83;;;;;;;-2.22;82.33;100175.33;1774233;79;21032;-48
2022/01/26 11:57:53;;;;;;;94.35;40.92;;;;;;;-2.23;82.66;100172.30;1777250;79;21473;-38
2022/01/26 12:01:30;;;;;;;100.12;41.92;;;;;;;-2.30;82.89;100174.09;1771543;79;21090;-45
2022/01/26 12:03:31;;;;;;;107.70;43.33;;;;;;;-2.37;83.17;100174.59;1748635;79;21041;-46
2022/01/26 12:05:59;;;;;;;92.17;43.80;;;;;;;-2.46;83.55;100175.00;1768497;79;20994;-38
2022/01/26 12:08:29;;;;;;;97.05;42.00;;;;;;;-2.47;84.10;100176.22;1772181;79;21780;-39
2022/01/26 12:10:56;;;;;;;88.50;41.63;;;;;;;-2.49;84.44;100173.98;1771483;79;21107;-46
2022/01/26 12:13:28;;;;;;;88.45;39.48;;;;;;;-2.51;84.66;100174.30;1769499;79;20978;-45
2022/01/26 12:16:13;;;;;;;60.23;30.90;;;;;;;-2.51;84.97;100184.54;1768222;79;21065;-45
2022/01/26 12:20:03;;;;;;;83.72;39.88;;;;;;;-2.50;85.13;100177.33;1771670;79;21024;-37
2022/01/26 12:37:52;;;;;;;85.38;39.65;;;;;;;-2.46;86.29;100186.94;1691140;83;21060;-47
2022/01/26 12:41:11;;;;;;;91.90;40.52;;;;;;;-2.44;85.81;100190.44;1657580;83;21051;-40
2022/01/26 12:41:54;;;;;;;90.05;44.38;;;;;;;-2.52;86.06;100191.34;1680715;83;21538;-37
2022/01/26 12:44:24;;;;;;;91.45;44.05;;;;;;;-2.52;86.58;100190.47;1684905;83;21002;-45
2022/01/26 12:46:52;;;;;;;86.70;39.18;;;;;;;-2.52;86.75;100196.47;1667919;83;21045;-47
2022/01/26 12:49:24;;;;;;;85.25;40.35;;;;;;;-2.54;86.49;100197.22;1690030;83;20970;-37
2022/01/26 12:51:52;;;;;;;98.17;46.63;;;;;;;-2.57;86.29;100195.77;1685306;83;21130;-38
2022/01/26 12:54:19;;;;;;;122.62;49.98;;;;;;;-2.60;86.31;100202.03;1688750;83;21010;-37
2022/01/26 12:56:46;;;;;;;129.42;53.35;;;;;;;-2.65;86.31;100201.78;1689547;83;21081;-43
2022/01/26 12:59:16;;;;;;;130.90;50.28;;;;;;;-2.66;86.58;100202.59;1691508;83;21151;-44
2022/01/26 13:01:46;;;;;;;129.72;53.05;;;;;;;-2.66;86.66;100206.84;1684879;83;21070;-46
2022/01/26 13:04:14;;;;;;;135.57;55.23;;;;;;;-2.69;86.83;100204.58;1684961;83;21072;-46
2022/01/26 13:06:46;;;;;;;133.72;53.78;;;;;;;-2.74;86.92;100209.86;1684741;83;21061;-47
2022/01/26 13:09:33;;;;;;;140.15;54.48;;;;;;;-2.79;87.07;100212.98;1699444;82;21428;-45
2022/01/26 13:12:02;;;;;;;136.32;53.58;;;;;;;-2.86;87.37;100211.80;1686439;82;21064;-46
2022/01/26 13:14:40;;;;;;;136.07;53.55;;;;;;;-2.90;87.72;100220.11;1709440;81;21481;-45
2022/01/26 13:17:20;;;;;;;137.35;57.03;;;;;;;-2.93;87.92;100218.69;1719420;82;21006;-45
2022/01/26 13:23:00;;;;;;;156.18;58.15;;;;;;;-2.93;88.34;100237.89;1713292;82;21057;-38
2022/01/26 13:26:01;;;;;;;147.13;55.92;;;;;;;-2.96;88.22;100233.87;1713297;82;21473;-45
2022/01/26 13:34:45;;;;;;;173.53;64.58;;;;;;;-2.93;88.18;100241.73;1714548;82;21028;-43
2022/01/26 13:37:09;;;;;;;180.37;66.80;;;;;;;-2.95;87.78;100257.42;1715807;82;21003;-39
2022/01/26 13:39:50;;;;;;;186.15;65.28;;;;;;;-2.98;87.82;100262.36;1721178;82;21085;-43
2022/01/26 13:50:03;;;;;;;186.37;70.10;;;;;;;-3.05;87.74;100261.56;1670707;85;21094;-37
